createdAt,value
2018-01-05T00:00:35.779Z,8.38
2018-01-05T00:03:03.287Z,8.36
2018-01-05T00:05:30.742Z,8.48
2018-01-05T00:07:58.199Z,8.56
2018-01-05T00:10:25.683Z,8.71
2018-01-05T00:12:53.187Z,8.66
2018-01-05T00:15:20.666Z,8.69
2018-01-05T00:17:48.126Z,8.62
2018-01-05T00:20:15.610Z,8.59
2018-01-05T00:22:43.055Z,8.56
2018-01-05T00:25:10.520Z,8.58
2018-01-05T00:27:37.979Z,8.61
2018-01-05T00:30:05.452Z,8.60
2018-01-05T00:32:32.907Z,8.57
2018-01-05T00:35:00.363Z,8.53
2018-01-05T00:37:38.991Z,8.49
2018-01-05T00:40:06.438Z,8.47
2018-01-05T00:42:33.910Z,8.45
2018-01-05T00:45:01.364Z,8.40
2018-01-05T00:47:28.843Z,8.44
2018-01-05T00:49:56.291Z,8.46
2018-01-05T00:52:23.766Z,8.46
2018-01-05T00:54:57.342Z,8.50
2018-01-05T00:57:24.819Z,8.52
2018-01-05T00:59:52.884Z,8.55
2018-01-05T01:02:20.351Z,8.55
2018-01-05T01:04:47.810Z,8.54
2018-01-05T01:07:15.299Z,8.53
2018-01-05T01:09:42.754Z,8.46
2018-01-05T01:12:10.211Z,8.41
2018-01-05T01:14:37.690Z,8.41
2018-01-05T01:17:05.146Z,8.45
2018-01-05T01:19:32.635Z,8.41
2018-01-05T01:22:00.124Z,8.41
2018-01-05T01:24:27.607Z,8.49
2018-01-05T01:26:55.067Z,8.49
2018-01-05T01:29:26.534Z,8.48
2018-01-05T01:31:53.986Z,8.40
2018-01-05T01:34:21.455Z,8.38
2018-01-05T01:36:48.903Z,8.37
2018-01-05T01:39:16.398Z,8.32
2018-01-05T01:41:43.847Z,8.25
2018-01-05T01:44:11.324Z,8.26
2018-01-05T01:46:38.779Z,8.23
2018-01-05T01:49:06.235Z,8.30
2018-01-05T01:51:33.719Z,8.43
2018-01-05T01:54:01.166Z,8.48
2018-01-05T01:56:28.653Z,8.46
2018-01-05T01:58:56.111Z,8.37
2018-01-05T02:01:23.619Z,8.34
2018-01-05T02:03:51.070Z,8.28
2018-01-05T02:06:18.542Z,8.33
2018-01-05T02:08:45.994Z,8.25
2018-01-05T02:11:13.483Z,8.26
2018-01-05T02:13:40.942Z,8.26
2018-01-05T02:16:08.393Z,8.21
2018-01-05T02:18:35.884Z,8.13
2018-01-05T02:21:03.344Z,8.01
2018-01-05T02:23:30.814Z,8.10
2018-01-05T02:25:58.275Z,7.92
2018-01-05T02:28:25.751Z,8.06
2018-01-05T02:30:53.204Z,8.04
2018-01-05T02:33:20.671Z,8.10
2018-01-05T02:35:48.135Z,8.16
2018-01-05T02:38:15.626Z,8.30
2018-01-05T02:40:43.083Z,8.34
2018-01-05T02:43:10.534Z,8.49
2018-01-05T02:45:38.020Z,8.49
2018-01-05T02:48:05.471Z,8.58
2018-01-05T02:50:32.975Z,8.66
2018-01-05T02:53:00.419Z,8.67
2018-01-05T02:55:27.895Z,8.68
2018-01-05T02:57:55.350Z,8.70
2018-01-05T03:00:22.824Z,8.66
2018-01-05T03:02:50.280Z,8.66
2018-01-05T03:05:17.756Z,8.66
2018-01-05T03:07:45.219Z,8.58
2018-01-05T03:10:12.702Z,8.56
2018-01-05T03:12:40.150Z,8.62
2018-01-05T03:15:07.604Z,8.58
2018-01-05T03:17:35.079Z,8.51
2018-01-05T03:20:02.530Z,8.38
2018-01-05T03:22:30.013Z,8.38
2018-01-05T03:24:57.462Z,8.29
2018-01-05T03:27:24.932Z,8.24
2018-01-05T03:29:52.383Z,8.20
2018-01-05T03:32:19.854Z,8.23
2018-01-05T03:34:47.318Z,8.34
2018-01-05T03:37:14.792Z,8.38
2018-01-05T03:39:42.251Z,8.38
2018-01-05T03:42:09.735Z,8.42
2018-01-05T03:44:37.203Z,8.47
2018-01-05T03:47:04.650Z,8.55
2018-01-05T03:49:32.124Z,8.64
2018-01-05T03:52:00.414Z,8.72
2018-01-05T03:54:27.886Z,8.78
2018-01-05T03:56:55.332Z,8.85
2018-01-05T03:59:22.807Z,8.89
2018-01-05T04:01:50.252Z,8.92
2018-01-05T04:04:17.722Z,8.90
2018-01-05T04:06:45.167Z,8.95
2018-01-05T04:09:12.652Z,8.92
2018-01-05T04:11:40.095Z,8.93
2018-01-05T04:14:07.539Z,8.85
2018-01-05T04:16:35.011Z,8.84
2018-01-05T04:19:02.475Z,8.82
2018-01-05T04:21:29.946Z,8.89
2018-01-05T04:23:57.395Z,8.93
2018-01-05T04:26:24.867Z,8.90
2018-01-05T04:28:52.323Z,8.81
2018-01-05T04:31:19.794Z,8.81
2018-01-05T04:33:47.251Z,8.80
2018-01-05T04:36:14.734Z,8.91
2018-01-05T04:38:42.195Z,8.99
2018-01-05T04:41:09.678Z,9.09
2018-01-05T04:43:37.133Z,9.13
2018-01-05T04:46:04.593Z,9.15
2018-01-05T04:48:32.071Z,9.11
2018-01-05T04:50:59.524Z,9.23
2018-01-05T04:53:26.995Z,9.40
2018-01-05T04:55:54.441Z,9.54
2018-01-05T04:58:21.944Z,9.61
2018-01-05T05:00:49.378Z,9.66
2018-01-05T05:03:16.847Z,9.82
2018-01-05T05:05:44.305Z,10.00
2018-01-05T05:08:11.774Z,10.00
2018-01-05T05:10:39.230Z,10.02
2018-01-05T05:13:06.711Z,10.07
2018-01-05T05:15:34.166Z,10.08
2018-01-05T05:18:01.624Z,10.01
2018-01-05T05:20:29.102Z,10.07
2018-01-05T05:22:56.550Z,9.93
2018-01-05T05:25:24.039Z,9.74
2018-01-05T05:27:51.490Z,9.60
2018-01-05T05:30:18.967Z,9.56
2018-01-05T05:32:46.435Z,9.53
2018-01-05T05:35:13.906Z,9.52
2018-01-05T05:37:41.363Z,9.49
2018-01-05T05:40:08.826Z,9.46
2018-01-05T05:42:36.279Z,9.48
2018-01-05T05:45:03.752Z,9.41
2018-01-05T05:47:31.206Z,9.28
2018-01-05T05:49:58.676Z,9.25
2018-01-05T05:52:26.152Z,9.17
2018-01-05T05:54:53.604Z,9.26
2018-01-05T05:57:21.079Z,9.38
2018-01-05T05:59:48.539Z,9.37
2018-01-05T06:02:16.019Z,9.34
2018-01-05T06:04:43.477Z,9.38
2018-01-05T06:07:10.964Z,9.34
2018-01-05T06:09:38.419Z,9.31
2018-01-05T06:12:05.904Z,9.38
2018-01-05T06:14:33.355Z,9.41
2018-01-05T06:17:00.819Z,9.54
2018-01-05T06:19:28.273Z,9.47
2018-01-05T06:21:55.744Z,9.41
2018-01-05T06:24:23.199Z,9.41
2018-01-05T06:26:50.693Z,9.44
2018-01-05T06:29:18.144Z,9.48
2018-01-05T06:31:45.591Z,9.47
2018-01-05T06:34:13.071Z,9.37
2018-01-05T06:36:40.523Z,9.37
2018-01-05T06:39:08.015Z,9.46
2018-01-05T06:41:35.489Z,9.64
2018-01-05T06:44:02.963Z,9.59
2018-01-05T06:46:30.410Z,9.54
2018-01-05T06:48:57.876Z,9.56
2018-01-05T06:51:25.333Z,9.53
2018-01-05T06:53:52.811Z,9.53
2018-01-05T06:56:20.269Z,9.52
2018-01-05T06:58:47.754Z,9.42
2018-01-05T07:01:15.206Z,9.33
2018-01-05T07:03:42.675Z,9.32
2018-01-05T07:06:10.139Z,9.32
2018-01-05T07:08:37.587Z,9.32
2018-01-05T07:11:05.052Z,9.41
2018-01-05T07:13:32.503Z,9.29
2018-01-05T07:15:59.982Z,9.24
2018-01-05T07:18:27.439Z,9.18
2018-01-05T07:20:54.912Z,9.20
2018-01-05T07:23:22.383Z,9.24
2018-01-05T07:25:49.859Z,9.39
2018-01-05T07:28:17.316Z,9.51
2018-01-05T07:30:44.777Z,9.58
2018-01-05T07:33:12.256Z,9.65
2018-01-05T07:35:39.711Z,9.56
2018-01-05T07:38:07.188Z,9.49
2018-01-05T07:40:34.644Z,9.46
2018-01-05T07:43:02.152Z,9.38
2018-01-05T07:45:29.611Z,9.45
2018-01-05T07:47:57.080Z,9.43
2018-01-05T07:50:24.531Z,9.32
2018-01-05T07:52:57.915Z,9.29
2018-01-05T07:55:25.369Z,9.26
2018-01-05T07:57:52.851Z,9.20
2018-01-05T08:00:20.294Z,9.16
2018-01-05T08:02:47.744Z,9.16
2018-01-05T08:05:15.218Z,9.20
2018-01-05T08:07:42.674Z,9.22
2018-01-05T08:10:10.139Z,9.19
2018-01-05T08:12:37.595Z,9.14
2018-01-05T08:15:05.072Z,9.15
2018-01-05T08:17:32.531Z,9.09
2018-01-05T08:20:00.019Z,9.14
2018-01-05T08:22:27.476Z,9.17
2018-01-05T08:24:55.435Z,9.23
2018-01-05T08:27:22.891Z,9.32
2018-01-05T08:29:50.344Z,9.32
2018-01-05T08:32:17.815Z,9.41
2018-01-05T08:34:45.271Z,9.46
2018-01-05T08:37:12.743Z,9.44
2018-01-05T08:39:40.198Z,9.50
2018-01-05T08:42:07.721Z,9.52
2018-01-05T08:44:35.183Z,9.49
2018-01-05T08:47:02.663Z,9.47
2018-01-05T08:49:30.119Z,9.46
2018-01-05T08:51:57.619Z,9.52
2018-01-05T08:54:25.071Z,9.51
2018-01-05T08:56:52.529Z,9.54
2018-01-05T08:59:19.998Z,9.58
2018-01-05T09:01:47.447Z,9.62
2018-01-05T09:04:14.923Z,9.62
2018-01-05T09:06:42.370Z,9.67
2018-01-05T09:09:09.854Z,9.72
2018-01-05T09:11:37.359Z,9.76
2018-01-05T09:14:04.826Z,9.77
2018-01-05T09:16:32.274Z,9.76
2018-01-05T09:18:59.756Z,9.82
2018-01-05T09:21:37.534Z,9.83
2018-01-05T09:24:05.003Z,9.81
2018-01-05T09:26:32.457Z,9.79
2018-01-05T09:28:59.927Z,9.83
2018-01-05T09:31:27.387Z,9.91
2018-01-05T09:33:54.854Z,9.96
2018-01-05T09:36:22.317Z,10.01
2018-01-05T09:38:49.802Z,9.99
2018-01-05T09:41:17.259Z,10.01
2018-01-05T09:43:44.735Z,10.00
2018-01-05T09:46:12.198Z,10.00
2018-01-05T09:48:39.672Z,10.05
2018-01-05T09:51:07.140Z,10.07
2018-01-05T09:53:34.643Z,10.08
2018-01-05T09:56:04.046Z,10.14
2018-01-05T09:58:31.528Z,10.20
2018-01-05T10:00:58.981Z,10.24
2018-01-05T10:03:26.463Z,10.26
2018-01-05T10:05:53.930Z,10.32
2018-01-05T10:08:21.447Z,10.40
2018-01-05T10:10:52.579Z,10.34
2018-01-05T10:13:24.163Z,10.35
2018-01-05T10:15:51.617Z,10.43
2018-01-05T10:18:19.106Z,10.39
2018-01-05T10:20:46.558Z,10.46
2018-01-05T10:23:14.016Z,10.46
2018-01-05T10:25:41.499Z,10.46
2018-01-05T10:28:08.961Z,10.46
2018-01-05T10:30:36.447Z,10.43
2018-01-05T10:33:03.909Z,10.50
2018-01-05T10:35:31.387Z,10.52
2018-01-05T10:37:58.846Z,10.55
2018-01-05T10:40:26.319Z,10.53
2018-01-05T10:42:53.788Z,10.50
2018-01-05T10:45:22.255Z,10.54
2018-01-05T10:47:49.758Z,10.53
2018-01-05T10:50:17.227Z,10.53
2018-01-05T10:52:44.707Z,10.52
2018-01-05T10:55:12.185Z,10.47
2018-01-05T10:57:39.639Z,10.40
2018-01-05T11:00:07.115Z,10.44
2018-01-05T11:02:34.572Z,10.53
2018-01-05T11:05:02.068Z,10.53
2018-01-05T11:07:29.528Z,10.60
2018-01-05T11:09:57.007Z,10.70
2018-01-05T11:12:24.522Z,10.74
2018-01-05T11:14:52.012Z,10.87
2018-01-05T11:17:19.459Z,10.84
2018-01-05T11:19:46.933Z,10.85
2018-01-05T11:22:14.386Z,10.86
2018-01-05T11:24:41.879Z,10.90
2018-01-05T11:27:09.339Z,10.86
2018-01-05T11:29:36.831Z,10.75
2018-01-05T11:32:04.291Z,10.73
2018-01-05T11:34:31.772Z,10.78
2018-01-05T11:36:59.223Z,10.86
2018-01-05T11:39:26.717Z,10.96
2018-01-05T11:41:54.180Z,10.93
2018-01-05T11:44:21.746Z,10.90
2018-01-05T11:46:49.222Z,10.87
2018-01-05T11:49:16.682Z,10.85
2018-01-05T11:51:44.166Z,10.85
2018-01-05T11:54:11.623Z,10.87
2018-01-05T11:56:39.124Z,10.89
2018-01-05T11:59:06.575Z,10.94
2018-01-05T12:01:34.076Z,11.02
2018-01-05T12:04:01.530Z,11.06
2018-01-05T12:06:29.015Z,11.05
2018-01-05T12:08:56.476Z,11.12
2018-01-05T12:11:23.970Z,11.04
2018-01-05T12:13:51.431Z,11.13
2018-01-05T12:16:18.911Z,11.17
2018-01-05T12:18:46.380Z,11.16
2018-01-05T12:21:13.866Z,10.99
2018-01-05T12:23:41.323Z,11.02
2018-01-05T12:26:08.799Z,11.05
2018-01-05T12:28:36.260Z,11.06
2018-01-05T12:31:03.744Z,10.93
2018-01-05T12:33:31.211Z,10.99
2018-01-05T12:35:58.719Z,10.86
2018-01-05T12:38:26.191Z,11.05
2018-01-05T12:40:53.678Z,10.88
2018-01-05T12:43:21.135Z,10.78
2018-01-05T12:45:48.619Z,10.93
2018-01-05T12:48:16.086Z,10.87
2018-01-05T12:50:43.570Z,10.83
2018-01-05T12:53:11.032Z,10.83
2018-01-05T12:55:38.507Z,10.69
2018-01-05T12:58:05.995Z,10.70
2018-01-05T13:00:33.482Z,10.69
2018-01-05T13:03:00.935Z,10.80
2018-01-05T13:05:28.404Z,10.62
2018-01-05T13:07:55.890Z,10.61
2018-01-05T13:10:23.354Z,10.56
2018-01-05T13:12:50.835Z,10.66
2018-01-05T13:15:18.299Z,10.57
2018-01-05T13:17:45.783Z,10.42
2018-01-05T13:20:13.243Z,10.34
2018-01-05T13:22:40.728Z,10.39
2018-01-05T13:25:08.193Z,10.46
2018-01-05T13:27:35.671Z,10.69
2018-01-05T13:30:03.131Z,10.57
2018-01-05T13:32:30.619Z,10.49
2018-01-05T13:34:58.080Z,10.49
2018-01-05T13:37:25.560Z,10.38
2018-01-05T13:39:53.022Z,10.42
2018-01-05T13:42:20.501Z,10.56
2018-01-05T13:44:47.968Z,10.47
2018-01-05T13:47:15.464Z,10.43
2018-01-05T13:49:42.933Z,10.32
2018-01-05T13:52:10.411Z,10.21
2018-01-05T13:54:37.866Z,10.23
2018-01-05T13:57:05.348Z,10.19
2018-01-05T13:59:32.804Z,10.10
2018-01-05T14:02:00.283Z,10.11
2018-01-05T14:04:27.743Z,10.03
2018-01-05T14:06:55.220Z,9.91
2018-01-05T14:09:22.671Z,9.83
2018-01-05T14:11:50.162Z,9.78
2018-01-05T14:14:17.626Z,9.75
2018-01-05T14:16:45.099Z,9.70
2018-01-05T14:19:12.571Z,9.76
2018-01-05T14:21:40.055Z,9.74
2018-01-05T14:24:07.583Z,9.73
2018-01-05T14:26:35.051Z,9.78
2018-01-05T14:29:02.528Z,9.80
2018-01-05T14:31:29.975Z,9.87
2018-01-05T14:33:57.467Z,10.03
2018-01-05T14:36:24.919Z,10.07
2018-01-05T14:38:52.395Z,10.02
2018-01-05T14:41:19.846Z,9.90
2018-01-05T14:43:47.318Z,9.86
2018-01-05T14:46:14.770Z,9.90
2018-01-05T14:48:42.245Z,9.92
2018-01-05T14:51:09.700Z,9.92
2018-01-05T14:53:37.178Z,9.92
2018-01-05T14:56:04.642Z,9.83
2018-01-05T14:58:32.118Z,9.72
2018-01-05T15:00:59.587Z,9.63
2018-01-05T15:03:27.063Z,9.57
2018-01-05T15:05:54.520Z,9.44
2018-01-05T15:08:21.991Z,9.23
2018-01-05T15:10:49.494Z,9.04
2018-01-05T15:13:16.952Z,8.89
2018-01-05T15:15:44.415Z,8.78
2018-01-05T15:18:11.912Z,8.69
2018-01-05T15:20:39.366Z,8.71
2018-01-05T15:23:06.831Z,8.72
2018-01-05T15:25:34.279Z,8.67
2018-01-05T15:28:01.763Z,8.71
2018-01-05T15:30:29.395Z,8.68
2018-01-05T15:32:56.871Z,8.68
2018-01-05T15:35:24.335Z,8.62
2018-01-05T15:37:51.824Z,8.64
2018-01-05T15:40:19.281Z,8.71
2018-01-05T15:42:46.754Z,8.69
2018-01-05T15:45:14.209Z,8.63
2018-01-05T15:47:41.666Z,8.67
2018-01-05T15:50:09.139Z,8.59
2018-01-05T15:52:36.594Z,8.53
2018-01-05T15:55:04.074Z,8.50
2018-01-05T15:57:31.551Z,8.35
2018-01-05T15:59:59.029Z,8.31
2018-01-05T16:02:26.495Z,8.34
2018-01-05T16:04:53.984Z,8.47
2018-01-05T16:07:21.449Z,8.30
2018-01-05T16:09:48.915Z,8.26
2018-01-05T16:12:16.371Z,8.33
2018-01-05T16:14:43.851Z,8.13
2018-01-05T16:17:11.307Z,8.02
2018-01-05T16:19:38.791Z,8.13
2018-01-05T16:22:06.251Z,8.25
2018-01-05T16:24:33.726Z,8.21
2018-01-05T16:27:01.177Z,8.05
2018-01-05T16:29:28.659Z,8.24
2018-01-05T16:31:56.131Z,8.30
2018-01-05T16:34:23.632Z,8.30
2018-01-05T16:36:51.093Z,8.18
2018-01-05T16:39:18.574Z,8.14
2018-01-05T16:41:46.037Z,8.17
2018-01-05T16:44:13.523Z,8.24
2018-01-05T16:46:40.981Z,8.25
2018-01-05T16:49:08.468Z,8.30
2018-01-05T16:51:35.983Z,8.29
2018-01-05T16:54:03.436Z,8.29
2018-01-05T16:56:30.907Z,8.21
2018-01-05T16:58:58.409Z,8.21
2018-01-05T17:01:25.863Z,8.27
2018-01-05T17:03:53.330Z,8.41
2018-01-05T17:06:20.787Z,8.51
2018-01-05T17:08:48.247Z,8.70
2018-01-05T17:11:15.802Z,8.87
2018-01-05T17:13:43.255Z,8.83
2018-01-05T17:16:11.541Z,8.72
2018-01-05T17:18:38.999Z,8.64
2018-01-05T17:21:06.772Z,8.55
2018-01-05T17:23:34.280Z,8.50
2018-01-05T17:26:01.809Z,8.59
2018-01-05T17:28:29.306Z,8.54
2018-01-05T17:30:56.806Z,8.58
2018-01-05T17:33:25.228Z,8.72
2018-01-05T17:35:52.739Z,8.71
2018-01-05T17:38:20.227Z,8.63
2018-01-05T17:40:47.819Z,8.68
2018-01-05T17:43:15.300Z,8.64
2018-01-05T17:45:42.808Z,8.61
2018-01-05T17:48:10.295Z,8.53
2018-01-05T17:50:37.783Z,8.63
2018-01-05T17:53:05.264Z,8.61
2018-01-05T17:55:32.781Z,8.65
2018-01-05T17:58:00.357Z,8.81
2018-01-05T18:00:27.824Z,8.85
2018-01-05T18:02:55.307Z,8.91
2018-01-05T18:05:25.129Z,8.88
2018-01-05T18:07:56.512Z,8.95
2018-01-05T18:10:27.683Z,8.91
2018-01-05T18:12:55.393Z,8.90
2018-01-05T18:15:24.551Z,8.97
2018-01-05T18:17:52.630Z,9.06
2018-01-05T18:20:23.400Z,9.06
2018-01-05T18:22:52.871Z,9.03
2018-01-05T18:25:20.792Z,8.97
2018-01-05T18:27:51.010Z,8.93
2018-01-05T18:30:18.584Z,8.96
2018-01-05T18:32:46.075Z,8.90
2018-01-05T18:35:13.595Z,8.95
2018-01-05T18:37:41.091Z,8.99
2018-01-05T18:40:08.606Z,9.01
2018-01-05T18:42:36.364Z,8.92
2018-01-05T18:45:04.051Z,8.91
2018-01-05T18:47:31.543Z,8.90
2018-01-05T18:49:59.026Z,8.98
2018-01-05T18:52:26.532Z,9.16
2018-01-05T18:55:01.432Z,9.24
2018-01-05T18:57:34.074Z,9.32
2018-01-05T19:08:06.378Z,8.88
2018-01-05T19:10:36.657Z,8.87
2018-01-05T19:13:05.133Z,8.88
2018-01-05T19:15:33.991Z,9.00
2018-01-05T19:23:13.136Z,8.95
2018-01-05T19:25:40.661Z,8.83
2018-01-05T19:28:08.199Z,8.65
2018-01-05T19:30:43.092Z,8.52
2018-01-05T19:33:14.000Z,8.43
2018-01-05T19:35:44.012Z,8.37
2018-01-05T19:38:15.071Z,8.31
2018-01-05T19:40:45.102Z,8.22
2018-01-05T19:43:13.657Z,8.15
2018-01-05T19:45:41.255Z,8.07
2018-01-05T19:48:09.857Z,7.97
2018-01-05T19:50:41.001Z,7.82
2018-01-05T19:53:08.568Z,7.66
2018-01-05T19:55:36.176Z,7.65
2018-01-05T19:58:03.758Z,7.44
2018-01-05T20:00:31.293Z,7.37
2018-01-05T20:02:58.974Z,7.12
2018-01-05T20:05:27.359Z,6.99
2018-01-05T20:07:54.884Z,6.94
2018-01-05T20:10:22.562Z,6.88
2018-01-05T20:12:52.364Z,6.75
2018-01-05T20:15:19.902Z,6.61
2018-01-05T20:17:48.435Z,6.63
2018-01-05T20:22:53.444Z,6.55
2018-01-05T20:25:20.970Z,6.41
2018-01-05T20:27:48.495Z,6.44
2018-01-05T20:30:16.028Z,6.32
2018-01-05T20:56:00.412Z,5.82
2018-01-05T20:58:28.220Z,5.80
2018-01-05T21:00:55.683Z,5.84
2018-01-05T21:03:40.068Z,5.90
2018-01-05T21:06:10.934Z,5.90
2018-01-05T21:11:40.771Z,5.44
2018-01-05T21:16:51.189Z,4.96
2018-01-05T21:22:36.556Z,4.86
2018-01-05T21:25:26.766Z,4.86
2018-01-05T21:30:50.691Z,4.62
2018-01-05T21:33:18.175Z,4.48
2018-01-05T21:35:45.626Z,4.31
2018-01-05T21:38:13.126Z,4.29
2018-01-05T21:40:40.584Z,4.14
2018-01-05T21:43:08.046Z,4.01
2018-01-05T21:45:35.531Z,3.95
2018-01-05T21:48:02.991Z,3.83
2018-01-05T21:50:30.470Z,3.73
2018-01-05T21:52:57.939Z,3.81
2018-01-05T21:55:25.410Z,3.82
2018-01-05T21:57:52.868Z,3.82
2018-01-05T22:00:20.347Z,3.75
2018-01-05T22:02:47.799Z,3.77
2018-01-05T22:05:15.294Z,3.72
2018-01-05T22:07:42.754Z,3.70
2018-01-05T22:10:10.243Z,3.58
2018-01-05T22:12:37.798Z,3.54
2018-01-05T22:15:05.256Z,3.49
2018-01-05T22:17:32.723Z,3.50
2018-01-05T22:20:00.177Z,3.67
2018-01-05T22:22:27.655Z,3.70
2018-01-05T22:24:55.116Z,4.14
2018-01-05T22:27:22.591Z,4.33
2018-01-05T22:29:50.057Z,4.35
2018-01-05T22:32:17.531Z,4.53
2018-01-05T22:34:44.982Z,4.61
2018-01-05T22:37:12.467Z,4.75
2018-01-05T22:39:39.918Z,4.67
2018-01-05T22:42:07.387Z,4.71
2018-01-05T22:44:34.838Z,4.70
2018-01-05T22:47:02.319Z,4.66
2018-01-05T22:49:29.786Z,4.59
2018-01-05T22:51:57.240Z,4.68
2018-01-05T22:54:24.720Z,4.76
2018-01-05T22:56:52.176Z,4.73
2018-01-05T22:59:19.652Z,4.65
2018-01-05T23:01:47.113Z,4.46
2018-01-05T23:04:14.599Z,4.35
2018-01-05T23:06:42.055Z,4.23
2018-01-05T23:09:09.527Z,4.27
2018-01-05T23:11:36.983Z,4.26
2018-01-05T23:14:04.465Z,4.47
2018-01-05T23:16:31.925Z,4.37
2018-01-05T23:18:59.403Z,4.24
2018-01-05T23:21:26.855Z,4.28
2018-01-05T23:23:54.343Z,4.61
2018-01-05T23:26:21.819Z,4.28
2018-01-05T23:28:49.278Z,4.15
2018-01-05T23:31:16.761Z,4.10
2018-01-05T23:33:44.222Z,4.13
2018-01-05T23:36:11.691Z,4.00
2018-01-05T23:38:39.146Z,4.02
2018-01-05T23:41:06.631Z,3.97
2018-01-05T23:43:34.086Z,3.85
2018-01-05T23:46:01.558Z,3.76
2018-01-05T23:48:29.007Z,3.72
2018-01-05T23:50:56.479Z,3.61
2018-01-05T23:53:23.995Z,3.56
2018-01-05T23:55:51.491Z,3.55
2018-01-05T23:58:18.945Z,3.73
